Aérodrome :
LOGIN :

S'inscrire | Disclaimer

   EN    FR    IT 

 










Légende :    VFR   VFR Marginal   IFR   IFR Intensif   IFR Très Intensif
Visi : 
Plafond : 
>= 8 km
>= 3000ft
5 à 8 km
1000 à 3000 ft
1500m à 5 km
500 à 1000 ft
800 à 1500m
200 à 500 ft
< 800m
< 200 ft
Symboles :   Orages  Brouillard  Fortes neiges  Fortes précipitations  Vent > 20 kt
SIGMETs :   Divers  Orages  Givrage  Turbulence  Onde Orograph.  Cendres Volcan.






- Altitude de l'aérodrome : 15 ft
- Code IATA : BHD


EGAC - George Best Belfast City

DERNIER METAR :
  • 190720Z AUTO 35006KT 300V020 9999 FEW040 12/07 Q1023

METARs EXPIRÉS :
  • 190650Z AUTO 35006KT 310V030 9999 NCD 12/07 Q1022
  • 190620Z AUTO 35005KT 310V020 9999 NCD 11/07 Q1022
  • 190550Z AUTO 35005KT 320V020 9999 SCT041 10/07 Q1022
  • 190520Z AUTO 34005KT 290V030 9999 FEW042 09/07 Q1022
  • 190450Z AUTO 35005KT 310V030 9999 NCD 09/06 Q1022
  • 190420Z AUTO VRB02KT 9999 NCD 08/06 Q1022
  • 190350Z AUTO 36006KT 320V030 9999 NCD 09/06 Q1021
  • 190320Z AUTO 35006KT 310V030 9999 SCT041 10/06 Q1022
  • 190250Z AUTO 02004KT 320V050 9999 BKN042 10/06 Q1022

TAF TAF EGAC
Valide du 19 à 06h jusqu'au 19 à 15h UTC


190557Z 1906/1915 36005KT 9999 SCT040
ATIS : +44 02890 935 124



MET'MAP, la Météo Aéronautique d'un coup d'oeil ! - Copyright ORBIFLY Décembre 2007 - Disclaimer

ORBIFLY MET'MAP TEAM :

Programmation & Développement : Alexandra Zaïnal
Sur une idée originale de : Baudouin d'Aumeries
Soutien technique & logistique : Manuel Goepfert
Assistance : Marc-Olivier Méhu




SOURCES & CREDITS :

   NOAA